createdAt,value
2018-12-04T00:03:35.127Z,1.30
2018-12-04T00:07:39.251Z,1.03
2018-12-04T00:11:43.299Z,1.00
2018-12-04T00:15:47.368Z,0.90
2018-12-04T00:19:50.888Z,0.93
2018-12-04T00:23:57.840Z,1.10
2018-12-04T00:28:01.866Z,1.70
2018-12-04T00:32:06.053Z,0.93
2018-12-04T00:36:10.050Z,1.30
2018-12-04T00:40:14.079Z,1.27
2018-12-04T00:44:18.575Z,1.30
2018-12-04T00:48:22.275Z,1.00
2018-12-04T00:52:26.404Z,1.60
2018-12-04T00:56:30.530Z,1.77
2018-12-04T01:00:34.756Z,1.50
2018-12-04T01:04:38.393Z,1.30
2018-12-04T01:08:42.433Z,1.67
2018-12-04T01:12:46.206Z,2.30
2018-12-04T01:16:51.011Z,1.63
2018-12-04T01:20:58.165Z,2.33
2018-12-04T01:25:02.471Z,2.43
2018-12-04T01:29:06.419Z,2.00
2018-12-04T01:33:10.230Z,1.90
2018-12-04T01:37:14.326Z,2.33
2018-12-04T01:41:18.410Z,2.07
2018-12-04T01:45:22.540Z,2.27
2018-12-04T01:49:26.371Z,2.00
2018-12-04T01:53:33.454Z,1.90
2018-12-04T01:57:37.523Z,1.47
2018-12-04T02:01:41.229Z,2.50
2018-12-04T02:05:45.377Z,2.33
2018-12-04T02:09:48.945Z,1.97
2018-12-04T02:13:53.120Z,2.00
2018-12-04T02:17:57.303Z,1.80
2018-12-04T02:22:00.663Z,1.57
2018-12-04T02:26:04.347Z,1.77
2018-12-04T02:30:10.036Z,1.73
2018-12-04T02:34:14.114Z,1.87
2018-12-04T02:38:18.012Z,1.60
2018-12-04T02:42:25.961Z,2.23
2018-12-04T02:46:29.639Z,2.13
2018-12-04T02:50:33.221Z,1.80
2018-12-04T02:54:37.185Z,1.93
2018-12-04T02:58:41.226Z,2.47
2018-12-04T03:02:45.262Z,1.87
2018-12-04T03:06:49.022Z,1.70
2018-12-04T03:10:52.911Z,1.80
2018-12-04T03:14:56.917Z,1.70
2018-12-04T03:19:00.986Z,2.00
2018-12-04T03:23:04.838Z,1.50
2018-12-04T03:27:09.151Z,2.67
2018-12-04T03:31:12.660Z,2.13
2018-12-04T03:35:15.990Z,2.20
2018-12-04T03:39:20.169Z,1.80
2018-12-04T03:43:24.076Z,2.20
2018-12-04T03:47:27.731Z,3.03
2018-12-04T03:51:31.914Z,2.83
2018-12-04T03:55:35.694Z,2.60
2018-12-04T03:59:39.921Z,3.77
2018-12-04T04:03:43.677Z,3.07
2018-12-04T04:07:47.262Z,2.90
2018-12-04T04:11:51.235Z,2.70
2018-12-04T04:15:55.247Z,2.50
2018-12-04T04:19:58.988Z,3.53
2018-12-04T04:24:03.070Z,2.50
2018-12-04T04:28:06.709Z,3.13
2018-12-04T04:32:09.980Z,2.83
2018-12-04T04:36:14.007Z,3.83
2018-12-04T04:40:17.966Z,3.03
2018-12-04T04:44:21.826Z,2.97
2018-12-04T04:48:26.087Z,2.70
2018-12-04T04:52:29.826Z,3.23
2018-12-04T04:57:05.163Z,3.73
2018-12-04T05:01:09.806Z,3.40
2018-12-04T05:05:13.810Z,3.10
2018-12-04T05:09:17.756Z,2.87
2018-12-04T05:13:22.253Z,2.83
2018-12-04T05:17:25.685Z,2.37
2018-12-04T05:21:29.489Z,3.80
2018-12-04T05:25:36.275Z,3.20
2018-12-04T05:29:40.496Z,3.30
2018-12-04T05:33:44.302Z,3.50
2018-12-04T05:37:48.202Z,3.00
2018-12-04T06:03:58.225Z,4.00
2018-12-04T06:08:02.167Z,3.57
2018-12-04T06:12:06.256Z,3.50
2018-12-04T06:16:10.099Z,3.53
2018-12-04T06:20:13.702Z,3.63
2018-12-04T06:24:18.521Z,3.70
2018-12-04T06:28:22.691Z,4.10
2018-12-04T06:32:26.621Z,3.83
2018-12-04T06:36:30.433Z,4.23
2018-12-04T06:40:34.882Z,4.07
2018-12-04T06:44:38.822Z,4.30
2018-12-04T06:48:42.681Z,3.70
2018-12-04T06:52:46.702Z,3.80
2018-12-04T06:57:17.775Z,4.50
2018-12-04T07:01:21.505Z,4.53
2018-12-04T07:05:25.385Z,4.47
2018-12-04T07:09:29.386Z,3.70
2018-12-04T07:13:33.293Z,3.80
2018-12-04T07:17:37.305Z,4.17
2018-12-04T07:21:46.883Z,3.63
2018-12-04T07:26:00.541Z,3.83
2018-12-04T07:30:04.852Z,3.13
2018-12-04T07:34:08.642Z,4.13
2018-12-04T07:38:12.657Z,4.23
2018-12-04T07:42:16.732Z,3.40
2018-12-04T07:46:20.721Z,3.43
2018-12-04T07:50:24.798Z,3.30
2018-12-04T07:54:28.752Z,3.60
2018-12-04T07:58:32.597Z,4.50
2018-12-04T08:02:36.506Z,4.10
2018-12-04T08:06:40.674Z,4.90
2018-12-04T08:10:44.856Z,4.07
2018-12-04T08:14:50.457Z,4.13
2018-12-04T08:18:57.359Z,4.30
2018-12-04T08:23:04.430Z,3.97
2018-12-04T08:27:09.030Z,3.63
2018-12-04T08:31:14.234Z,3.63
2018-12-04T08:35:28.266Z,3.50
2018-12-04T08:39:32.430Z,3.77
2018-12-04T08:43:36.448Z,4.70
2018-12-04T08:47:40.511Z,3.80
2018-12-04T08:51:44.122Z,3.80
2018-12-04T08:55:48.037Z,3.40
2018-12-04T08:59:52.203Z,3.57
2018-12-04T09:03:59.207Z,3.43
2018-12-04T09:08:02.177Z,3.20
2018-12-04T09:12:06.401Z,5.57
2018-12-04T09:16:10.470Z,3.30
2018-12-04T09:20:14.405Z,3.23
2018-12-04T09:24:17.804Z,2.77
2018-12-04T09:28:21.212Z,2.83
2018-12-04T09:32:25.035Z,2.77
2018-12-04T09:36:29.101Z,3.20
2018-12-04T09:41:28.858Z,2.83
2018-12-04T09:45:32.318Z,2.87
2018-12-04T09:49:36.220Z,3.00
2018-12-04T09:53:40.416Z,3.43
2018-12-04T09:57:43.824Z,2.03
2018-12-04T10:01:49.120Z,2.37
2018-12-04T10:05:52.619Z,2.17
2018-12-04T10:17:54.839Z,3.63
2018-12-04T10:21:58.791Z,1.70
2018-12-04T10:26:02.607Z,2.47
2018-12-04T10:30:09.442Z,2.00
2018-12-04T10:34:13.491Z,2.20
2018-12-04T10:38:18.739Z,2.37
2018-12-04T10:42:22.455Z,2.00
2018-12-04T10:46:26.645Z,2.10
2018-12-04T10:50:30.995Z,2.10
2018-12-04T10:54:34.828Z,1.80
2018-12-04T10:58:38.715Z,2.13
2018-12-04T11:02:47.786Z,2.30
2018-12-04T11:06:51.475Z,2.97
2018-12-04T11:10:55.301Z,1.73
2018-12-04T11:14:58.677Z,1.73
2018-12-04T11:23:01.159Z,2.30
2018-12-04T11:27:06.030Z,1.53
2018-12-04T11:31:09.396Z,1.73
2018-12-04T11:35:16.139Z,1.87
2018-12-04T11:39:20.162Z,1.60
2018-12-04T11:43:24.058Z,1.53
2018-12-04T11:47:28.090Z,2.23
2018-12-04T11:51:31.894Z,3.80
2018-12-04T11:55:35.564Z,1.63
2018-12-04T11:59:44.770Z,2.13
2018-12-04T12:03:51.949Z,1.70
2018-12-04T12:07:55.940Z,2.03
2018-12-04T12:12:13.223Z,1.77
2018-12-04T12:16:16.780Z,1.90
2018-12-04T13:04:13.969Z,2.00
2018-12-04T13:08:18.357Z,1.83
2018-12-04T13:12:22.371Z,3.00
2018-12-04T13:16:26.467Z,2.33
2018-12-04T13:20:30.294Z,2.30
2018-12-04T13:24:34.407Z,2.17
2018-12-04T13:28:44.052Z,3.30
2018-12-04T13:32:48.260Z,2.93
2018-12-04T13:36:53.033Z,1.77
2018-12-04T13:40:56.689Z,2.37
2018-12-04T13:45:00.672Z,2.53
2018-12-04T13:49:04.423Z,2.10
2018-12-04T13:53:08.035Z,2.87
2018-12-04T13:57:12.652Z,3.40
2018-12-04T14:01:17.353Z,1.90
2018-12-04T14:09:26.151Z,2.60
2018-12-04T14:13:30.550Z,2.77
2018-12-04T14:17:35.498Z,2.70
2018-12-04T14:21:40.599Z,2.57
2018-12-04T14:25:44.537Z,2.30
2018-12-04T14:29:48.190Z,2.27
2018-12-04T14:33:52.367Z,2.10
2018-12-04T14:37:56.555Z,2.40
2018-12-04T14:42:00.571Z,2.33
2018-12-04T14:46:05.530Z,1.70
2018-12-04T14:50:10.473Z,2.50
2018-12-04T14:54:14.700Z,1.50
2018-12-04T14:58:18.527Z,1.77
2018-12-04T15:02:22.484Z,2.30
2018-12-04T15:06:26.871Z,1.90
2018-12-04T15:10:30.509Z,1.50
2018-12-04T15:14:34.601Z,1.93
2018-12-04T15:18:55.015Z,2.40
2018-12-04T15:22:59.151Z,1.90
2018-12-04T15:27:03.223Z,2.43
2018-12-04T15:31:12.790Z,2.37
2018-12-04T15:35:16.327Z,2.53
2018-12-04T15:39:20.135Z,2.60
2018-12-04T15:43:24.266Z,2.63
2018-12-04T15:47:28.075Z,3.13
2018-12-04T15:51:32.171Z,3.20
2018-12-04T15:55:36.432Z,2.60
2018-12-04T15:59:41.909Z,2.90
2018-12-04T16:03:48.516Z,2.73
2018-12-04T16:07:52.585Z,2.77
2018-12-04T16:11:56.834Z,3.10
2018-12-04T16:16:01.284Z,3.10
2018-12-04T16:20:09.905Z,3.50
2018-12-04T16:24:14.095Z,3.07
2018-12-04T16:28:18.337Z,3.17
2018-12-04T16:32:21.907Z,3.37
2018-12-04T16:36:25.876Z,2.70
2018-12-04T16:40:29.835Z,2.40
2018-12-04T16:44:33.871Z,2.83
2018-12-04T16:48:38.207Z,3.87
2018-12-04T16:52:41.599Z,2.97
2018-12-04T16:56:48.372Z,3.00
2018-12-04T17:00:52.462Z,2.87
2018-12-04T17:04:56.463Z,2.97
2018-12-04T17:09:03.822Z,5.87
2018-12-04T17:13:07.620Z,4.70
2018-12-04T17:17:13.987Z,4.17
2018-12-04T17:21:17.449Z,3.80
2018-12-04T17:25:21.337Z,4.37
2018-12-04T17:29:25.011Z,3.87
2018-12-04T17:33:28.975Z,4.47
2018-12-04T17:37:29.115Z,5.50
2018-12-04T17:41:33.105Z,5.67
2018-12-04T17:45:37.149Z,6.37
2018-12-04T17:49:41.185Z,6.43
2018-12-04T17:53:47.737Z,7.67
2018-12-04T17:57:52.337Z,9.10
2018-12-04T18:01:56.771Z,7.30
2018-12-04T18:06:00.908Z,6.07
2018-12-04T18:10:09.455Z,6.73
2018-12-04T18:14:13.105Z,5.70
2018-12-04T18:22:16.707Z,5.90
2018-12-04T18:26:25.319Z,6.20
2018-12-04T18:30:34.300Z,6.23
2018-12-04T18:34:38.891Z,6.43
2018-12-04T18:38:44.308Z,7.40
2018-12-04T18:47:01.803Z,7.43
2018-12-04T18:51:05.623Z,7.43
2018-12-04T18:55:11.506Z,6.43
2018-12-04T18:59:15.239Z,6.70
2018-12-04T19:03:19.338Z,6.17
2018-12-04T19:07:23.271Z,6.97
2018-12-04T19:11:27.347Z,10.63
2018-12-04T19:15:31.491Z,9.23
2018-12-04T19:19:35.246Z,9.50
2018-12-04T19:23:39.808Z,8.03
2018-12-04T19:27:46.571Z,7.60
2018-12-04T19:31:53.059Z,8.13
2018-12-04T19:35:57.095Z,7.13
2018-12-04T19:40:04.222Z,7.07
2018-12-04T19:44:09.718Z,5.87
2018-12-04T19:48:27.456Z,6.60
2018-12-04T19:52:31.626Z,6.40
2018-12-04T19:56:35.352Z,6.80
2018-12-04T20:00:44.391Z,4.77
2018-12-04T20:09:10.583Z,5.23
2018-12-04T20:14:46.950Z,6.30
2018-12-04T20:18:51.576Z,6.20
2018-12-04T20:22:56.066Z,10.37
2018-12-04T20:36:03.251Z,7.37
2018-12-04T20:40:07.944Z,7.00
2018-12-04T20:44:12.153Z,8.53
2018-12-04T20:48:16.144Z,8.50
2018-12-04T20:52:21.094Z,8.27
2018-12-04T20:56:25.346Z,7.37
2018-12-04T21:00:29.731Z,7.30
2018-12-04T21:04:34.287Z,7.37
2018-12-04T21:08:38.632Z,6.17
2018-12-04T21:12:43.185Z,6.43
2018-12-04T21:16:50.883Z,6.80
2018-12-04T21:20:55.616Z,6.70
2018-12-04T21:25:04.365Z,5.50
2018-12-04T21:29:13.714Z,5.97
2018-12-04T21:33:23.633Z,5.40
2018-12-04T21:37:33.490Z,5.30
2018-12-04T21:41:44.811Z,5.30
2018-12-04T21:45:54.138Z,5.17
2018-12-04T21:49:59.064Z,4.90
2018-12-04T21:54:02.688Z,5.10
2018-12-04T21:58:07.718Z,5.00
2018-12-04T22:02:11.445Z,5.33
2018-12-04T22:06:15.782Z,5.73
2018-12-04T22:10:19.985Z,5.20
2018-12-04T22:14:24.137Z,6.30
2018-12-04T22:18:28.815Z,6.10
2018-12-04T22:22:33.076Z,6.03
2018-12-04T22:26:40.154Z,6.00
2018-12-04T22:30:44.154Z,6.10
2018-12-04T22:34:47.757Z,5.23
2018-12-04T22:38:51.943Z,5.50
2018-12-04T22:42:56.164Z,5.20
2018-12-04T22:47:00.664Z,5.87
2018-12-04T22:51:05.158Z,5.67
2018-12-04T22:55:09.786Z,5.13
2018-12-04T22:59:13.647Z,5.37
2018-12-04T23:03:18.820Z,5.53
2018-12-04T23:07:23.940Z,5.13
2018-12-04T23:11:28.463Z,5.60
2018-12-04T23:15:33.039Z,5.03
2018-12-04T23:19:43.678Z,4.83
2018-12-04T23:23:48.604Z,5.10
2018-12-04T23:27:52.372Z,4.57
2018-12-04T23:31:56.476Z,4.97
2018-12-04T23:36:00.671Z,4.90
2018-12-04T23:40:05.385Z,4.33
2018-12-04T23:44:09.675Z,4.80
2018-12-04T23:48:13.488Z,4.87
2018-12-04T23:52:17.743Z,5.27
2018-12-04T23:56:21.783Z,4.97
